Time;durP1;ratioP1;P1;durP2;ratioP2;P2;SDS_P1;SDS_P2;PMS_P1;PMS_P2;Temp;Humidity;BMP_temperature;BMP_pressure;BME280_temperature;BME280_humidity;BME280_pressure;Samples;Min_cycle;Max_cycle;Signal;HPM_P1;HPM_P2
2020/12/10 00:00:36;;;;;;;19.48;12.03;;;;;;;-1.52;73.68;100078.95;1807685;79;21113;-64
2020/12/10 00:03:04;;;;;;;20.32;11.60;;;;;;;-1.51;73.55;100076.43;1807773;79;21050;-64
2020/12/10 00:05:31;;;;;;;20.52;11.57;;;;;;;-1.52;73.58;100084.91;1807724;78;21200;-64
2020/12/10 00:08:00;;;;;;;22.93;12.50;;;;;;;-1.50;73.47;100077.29;1807802;79;21509;-64
2020/12/10 00:10:27;;;;;;;21.52;12.37;;;;;;;-1.50;73.46;100076.02;1807740;78;21105;-63
2020/12/10 00:12:57;;;;;;;16.82;11.65;;;;;;;-1.50;73.41;100059.02;1807861;79;21169;-63
2020/12/10 00:15:25;;;;;;;17.92;11.40;;;;;;;-1.50;73.38;100060.29;1808014;79;21565;-64
2020/12/10 00:17:53;;;;;;;17.50;10.72;;;;;;;-1.47;73.20;100052.69;1808058;78;22187;-63
2020/12/10 00:20:20;;;;;;;17.17;11.20;;;;;;;-1.45;73.07;100050.17;1807809;79;21947;-64
2020/12/10 00:22:48;;;;;;;17.80;9.65;;;;;;;-1.47;72.77;100053.11;1807910;79;21105;-61
2020/12/10 00:25:15;;;;;;;16.85;10.63;;;;;;;-1.51;72.76;100066.64;1807835;79;21903;-64
2020/12/10 00:27:43;;;;;;;18.10;9.60;;;;;;;-1.54;72.96;100057.24;1812050;78;21033;-64
2020/12/10 00:30:10;;;;;;;18.27;9.88;;;;;;;-1.53;72.76;100058.10;1813679;79;21502;-64
2020/12/10 00:32:41;;;;;;;17.98;11.00;;;;;;;-1.55;72.64;100061.90;1813568;79;21068;-64
2020/12/10 00:35:09;;;;;;;18.12;9.70;;;;;;;-1.54;72.70;100056.38;1813620;79;21470;-64
2020/12/10 00:37:37;;;;;;;18.40;10.60;;;;;;;-1.50;72.52;100046.27;1813529;77;21101;-64
2020/12/10 00:40:07;;;;;;;17.07;10.80;;;;;;;-1.50;71.86;100052.64;1813559;78;21136;-64
2020/12/10 00:42:35;;;;;;;15.78;9.58;;;;;;;-1.52;71.94;100038.14;1813676;79;21600;-64
2020/12/10 00:45:04;;;;;;;16.20;8.95;;;;;;;-1.54;71.66;100030.45;1813539;78;21104;-63
2020/12/10 00:47:31;;;;;;;17.35;9.10;;;;;;;-1.55;71.41;100041.91;1813655;79;21458;-64
2020/12/10 00:50:01;;;;;;;14.65;9.45;;;;;;;-1.55;71.28;100045.32;1813591;79;21065;-63
2020/12/10 00:52:29;;;;;;;14.35;9.35;;;;;;;-1.53;71.27;100044.93;1813621;78;21491;-63
2020/12/10 00:55:00;;;;;;;18.92;10.25;;;;;;;-1.53;70.79;100037.70;1813500;79;21190;-62
2020/12/10 00:57:29;;;;;;;17.30;9.70;;;;;;;-1.58;70.60;100041.86;1813936;79;21085;-63
2020/12/10 00:59:57;;;;;;;15.68;9.33;;;;;;;-1.63;70.72;100042.22;1787052;79;21128;-62
2020/12/10 01:02:25;;;;;;;14.30;9.83;;;;;;;-1.68;70.47;100035.77;1813551;79;21216;-63
2020/12/10 01:04:53;;;;;;;13.95;9.43;;;;;;;-1.77;70.34;100027.53;1813698;78;21470;-63
2020/12/10 01:07:20;;;;;;;15.45;8.88;;;;;;;-1.78;70.48;100031.33;1813596;78;21194;-63
2020/12/10 01:09:49;;;;;;;18.75;10.03;;;;;;;-1.74;70.32;100024.17;1813572;79;21069;-63
2020/12/10 01:12:17;;;;;;;15.60;9.38;;;;;;;-1.74;70.17;100026.31;1813559;79;21140;-64
2020/12/10 01:14:45;;;;;;;15.78;9.93;;;;;;;-1.71;70.17;100034.43;1813540;79;21125;-64
2020/12/10 01:17:12;;;;;;;16.20;9.43;;;;;;;-1.68;70.08;100038.73;1813570;79;21097;-63
2020/12/10 01:19:40;;;;;;;13.58;8.95;;;;;;;-1.64;70.12;100035.40;1813510;79;21494;-64
2020/12/10 01:22:07;;;;;;;20.25;10.90;;;;;;;-1.55;69.74;100040.63;1813549;78;21592;-63
2020/12/10 01:24:36;;;;;;;15.50;8.98;;;;;;;-1.54;69.49;100036.84;1813553;79;21132;-63
2020/12/10 01:27:04;;;;;;;14.13;8.10;;;;;;;-1.49;69.33;100033.95;1811436;79;21140;-64
2020/12/10 01:29:31;;;;;;;14.73;8.35;;;;;;;-1.47;68.71;100034.84;1807879;79;21049;-63
2020/12/10 01:31:59;;;;;;;12.93;8.10;;;;;;;-1.47;68.12;100023.77;1807830;79;22200;-64
2020/12/10 01:34:26;;;;;;;13.83;8.35;;;;;;;-1.52;67.88;100007.53;1807740;79;21566;-64
2020/12/10 01:36:53;;;;;;;11.43;7.60;;;;;;;-1.53;67.41;100017.28;1807827;79;21058;-64
2020/12/10 01:39:21;;;;;;;13.98;8.00;;;;;;;-1.55;67.59;100011.30;1807788;78;21475;-64
2020/12/10 01:41:49;;;;;;;12.03;7.30;;;;;;;-1.54;67.59;100009.19;1807861;79;21074;-64
2020/12/10 01:44:18;;;;;;;16.37;8.20;;;;;;;-1.51;67.34;100010.52;1807830;79;21366;-64
2020/12/10 01:46:45;;;;;;;18.15;8.05;;;;;;;-1.49;66.80;100003.34;1779061;79;21785;-64
2020/12/10 01:49:16;;;;;;;14.95;7.70;;;;;;;-1.52;66.57;99999.45;1807878;78;21137;-64
2020/12/10 01:51:44;;;;;;;12.47;6.95;;;;;;;-1.58;66.49;99989.15;1807849;79;21172;-64
2020/12/10 01:54:12;;;;;;;13.30;7.25;;;;;;;-1.62;66.39;99995.06;1807833;79;21696;-63
2020/12/10 01:56:39;;;;;;;12.50;7.25;;;;;;;-1.67;66.64;99992.85;1807856;78;21366;-63
2020/12/10 01:59:07;;;;;;;14.50;7.62;;;;;;;-1.68;66.39;99991.55;1807779;79;21113;-64
2020/12/10 02:01:35;;;;;;;12.95;7.53;;;;;;;-1.71;66.35;100000.42;1807814;79;21138;-64
2020/12/10 02:04:27;;;;;;;15.30;7.45;;;;;;;-1.76;66.61;100001.20;1807827;79;21592;-64
2020/12/10 02:06:56;;;;;;;14.43;8.73;;;;;;;-1.77;66.79;99990.97;1807930;78;21517;-64
2020/12/10 02:09:23;;;;;;;15.78;7.12;;;;;;;-1.73;66.74;99994.02;1807920;79;22325;-65
2020/12/10 02:11:52;;;;;;;12.30;7.75;;;;;;;-1.70;66.66;99988.11;1807696;78;21065;-65
2020/12/10 02:14:21;;;;;;;10.00;6.80;;;;;;;-1.78;66.72;99985.42;1807919;78;21046;-65
2020/12/10 02:16:55;;;;;;;18.80;7.50;;;;;;;-1.80;66.96;99980.30;1807922;78;21557;-65
2020/12/10 02:19:22;;;;;;;14.43;7.03;;;;;;;-1.81;66.77;99974.79;1807866;79;21046;-64
2020/12/10 02:21:50;;;;;;;17.62;8.75;;;;;;;-1.84;66.75;99968.36;1807815;78;21254;-64
2020/12/10 02:26:56;;;;;;;13.98;7.83;;;;;;;-1.84;67.16;99970.05;1890107;76;22782;-63
2020/12/10 02:29:24;;;;;;;11.05;6.80;;;;;;;-1.86;67.13;99969.16;1860993;77;20914;-63
2020/12/10 02:31:52;;;;;;;24.92;8.28;;;;;;;-1.90;66.92;99974.62;1860973;77;21319;-63
2020/12/10 02:34:19;;;;;;;12.65;7.62;;;;;;;-1.95;66.91;99969.86;1860889;77;21577;-63
2020/12/10 02:36:47;;;;;;;13.22;7.17;;;;;;;-2.01;67.08;99966.38;1860889;77;21498;-62
2020/12/10 02:39:15;;;;;;;13.50;8.73;;;;;;;-2.01;67.34;99961.27;1879743;76;21099;-63
2020/12/10 02:41:43;;;;;;;14.47;9.00;;;;;;;-1.99;67.37;99962.98;1807160;79;20929;-63
2020/12/10 02:44:10;;;;;;;15.95;9.60;;;;;;;-1.95;67.22;99953.29;1822867;78;21369;-63
2020/12/10 02:46:38;;;;;;;16.87;8.83;;;;;;;-1.96;67.04;99949.02;1807118;79;21524;-63
2020/12/10 02:49:05;;;;;;;13.72;8.45;;;;;;;-1.98;67.18;99947.28;1822874;78;20946;-64
2020/12/10 02:51:33;;;;;;;14.30;8.18;;;;;;;-2.02;67.11;99947.67;1807140;78;21496;-63
2020/12/10 02:54:01;;;;;;;17.07;8.78;;;;;;;-2.05;67.40;99950.58;1822842;78;21099;-63
2020/12/10 02:56:28;;;;;;;11.45;7.67;;;;;;;-2.08;67.51;99947.56;1807068;79;21373;-63
2020/12/10 02:58:56;;;;;;;15.83;8.48;;;;;;;-2.12;67.70;99951.74;1822803;78;21091;-63
2020/12/10 03:01:23;;;;;;;13.32;7.97;;;;;;;-2.15;67.81;99954.65;1807170;79;21485;-63
2020/12/10 03:03:51;;;;;;;12.05;7.37;;;;;;;-2.14;68.04;99953.41;1822905;78;21559;-63
2020/12/10 03:06:19;;;;;;;15.65;8.13;;;;;;;-2.12;67.98;99949.61;1807059;79;21088;-63
2020/12/10 03:08:47;;;;;;;15.13;8.58;;;;;;;-2.16;68.12;99950.38;1822916;78;21472;-63
2020/12/10 03:11:15;;;;;;;14.40;7.90;;;;;;;-2.15;68.34;99948.28;1807070;79;21068;-62
2020/12/10 03:13:42;;;;;;;17.85;8.23;;;;;;;-2.13;68.41;99946.20;1822798;78;21072;-62
2020/12/10 03:16:10;;;;;;;16.85;8.78;;;;;;;-2.11;68.41;99951.33;1807061;79;21588;-63
2020/12/10 03:18:37;;;;;;;17.37;8.40;;;;;;;-2.09;68.54;99947.12;1822809;78;21134;-62
2020/12/10 03:21:05;;;;;;;14.70;8.93;;;;;;;-2.08;68.57;99945.02;1822849;78;21376;-62
2020/12/10 03:23:32;;;;;;;24.23;9.18;;;;;;;-2.12;68.70;99944.09;1807006;79;21076;-62
2020/12/10 03:26:02;;;;;;;19.62;9.45;;;;;;;-2.10;68.85;99939.03;1821770;78;21099;-63
2020/12/10 03:28:29;;;;;;;15.15;9.08;;;;;;;-2.11;68.99;99933.48;1821099;78;21146;-63
2020/12/10 03:30:56;;;;;;;19.90;10.50;;;;;;;-2.11;69.17;99929.25;1796934;78;21699;-64
2020/12/10 03:33:24;;;;;;;16.32;10.08;;;;;;;-2.09;69.32;99926.31;1811609;79;21375;-63
2020/12/10 03:35:51;;;;;;;18.85;9.80;;;;;;;-2.04;69.39;99928.94;1796822;78;21102;-63
2020/12/10 03:38:19;;;;;;;18.77;9.88;;;;;;;-2.01;69.48;99927.72;1796261;79;21103;-63
2020/12/10 03:40:46;;;;;;;23.60;11.05;;;;;;;-1.98;69.56;99917.55;1796415;78;21514;-64
2020/12/10 03:43:14;;;;;;;20.05;10.18;;;;;;;-2.00;69.73;99914.56;1811054;79;21052;-64
2020/12/10 03:45:42;;;;;;;20.97;11.48;;;;;;;-2.00;69.94;99908.19;1796277;79;21442;-64
2020/12/10 03:48:09;;;;;;;24.85;11.48;;;;;;;-1.99;70.01;99906.91;1811079;79;21122;-63
2020/12/10 03:50:37;;;;;;;24.95;11.33;;;;;;;-1.99;70.22;99916.25;1796304;79;21039;-63
2020/12/10 03:53:04;;;;;;;20.95;10.38;;;;;;;-1.98;70.42;99917.55;1811009;79;21489;-63
2020/12/10 03:55:32;;;;;;;18.62;10.30;;;;;;;-2.00;70.67;99914.15;1796346;79;21118;-63
2020/12/10 03:58:00;;;;;;;24.70;12.47;;;;;;;-2.06;70.96;99917.00;1810999;79;21430;-63
2020/12/10 04:00:28;;;;;;;20.45;10.98;;;;;;;-2.12;71.35;99916.48;1796217;78;21145;-63
2020/12/10 04:02:56;;;;;;;23.80;12.58;;;;;;;-2.12;71.60;99915.20;1811055;79;21468;-63
2020/12/10 04:05:23;;;;;;;20.30;11.00;;;;;;;-2.11;71.79;99902.48;1796245;79;21038;-63
2020/12/10 04:07:51;;;;;;;21.85;11.22;;;;;;;-2.09;71.94;99903.38;1811046;79;21543;-63
2020/12/10 04:10:19;;;;;;;21.02;10.58;;;;;;;-2.09;72.09;99902.52;1796272;79;22624;-63
2020/12/10 04:12:46;;;;;;;22.93;11.63;;;;;;;-2.09;72.29;99894.87;1810931;79;21505;-63
2020/12/10 04:15:14;;;;;;;20.37;11.15;;;;;;;-2.11;72.30;99890.16;1796306;79;21071;-63
2020/12/10 04:17:41;;;;;;;24.75;11.22;;;;;;;-2.12;72.53;99890.99;1811002;79;21552;-63
2020/12/10 04:20:09;;;;;;;24.10;11.90;;;;;;;-2.10;72.54;99886.37;1796321;79;21098;-63
2020/12/10 04:22:36;;;;;;;19.60;10.40;;;;;;;-2.10;72.67;99888.91;1811014;79;22184;-63
2020/12/10 04:25:04;;;;;;;22.40;11.00;;;;;;;-2.06;72.57;99888.97;1796175;79;21048;-63
2020/12/10 04:27:31;;;;;;;17.82;11.38;;;;;;;-2.04;72.45;99893.67;1812793;79;21150;-63
2020/12/10 04:29:59;;;;;;;20.97;11.75;;;;;;;-2.04;72.59;99893.26;1806419;79;21135;-63
2020/12/10 04:32:27;;;;;;;20.80;9.95;;;;;;;-2.02;72.52;99886.91;1822211;78;21468;-63
2020/12/10 04:34:55;;;;;;;20.25;10.13;;;;;;;-1.99;72.42;99881.84;1822167;78;21354;-63
2020/12/10 04:37:22;;;;;;;20.35;10.48;;;;;;;-2.03;72.45;99887.75;1806362;79;21143;-63
2020/12/10 04:39:49;;;;;;;18.75;10.28;;;;;;;-2.03;72.58;99886.06;1822142;78;21583;-63
2020/12/10 04:42:18;;;;;;;17.77;9.85;;;;;;;-1.99;72.60;99890.77;1806504;79;21120;-63
2020/12/10 04:44:46;;;;;;;17.80;10.55;;;;;;;-1.99;72.59;99899.27;1822216;78;21055;-63
2020/12/10 04:47:15;;;;;;;17.62;10.32;;;;;;;-2.01;72.62;99899.69;1822154;78;21264;-63
2020/12/10 04:49:43;;;;;;;16.85;10.55;;;;;;;-2.04;72.74;99901.33;1806435;79;21093;-63
2020/12/10 04:52:11;;;;;;;25.37;10.35;;;;;;;-2.07;72.87;99893.20;1822129;78;21571;-65
2020/12/10 04:54:40;;;;;;;18.65;10.32;;;;;;;-2.10;73.06;99894.43;1792967;78;21551;-63
2020/12/10 04:57:10;;;;;;;17.23;9.93;;;;;;;-2.12;73.12;99899.50;1806458;79;21146;-62
2020/12/10 04:59:39;;;;;;;21.20;11.00;;;;;;;-2.11;73.40;99888.89;1822201;78;22326;-62
2020/12/10 05:02:11;;;;;;;25.27;11.55;;;;;;;-2.04;73.43;99882.21;1822249;78;21493;-62
2020/12/10 05:04:40;;;;;;;23.40;12.18;;;;;;;-2.04;73.29;99886.89;1806478;79;21591;-62
2020/12/10 05:07:07;;;;;;;22.73;13.15;;;;;;;-2.06;73.38;99887.70;1822076;78;21131;-63
2020/12/10 05:09:35;;;;;;;21.57;11.05;;;;;;;-2.02;73.53;99892.02;1806536;79;21464;-63
2020/12/10 05:12:03;;;;;;;24.02;10.58;;;;;;;-1.94;73.44;99877.67;1822752;78;21198;-63
2020/12/10 05:14:47;;;;;;;18.05;11.22;;;;;;;-1.89;73.26;99884.98;1766915;78;21615;-63
2020/12/10 05:17:16;;;;;;;20.92;11.12;;;;;;;-1.88;73.21;99883.73;1806401;79;21048;-63
2020/12/10 05:19:44;;;;;;;21.80;11.57;;;;;;;-1.91;73.21;99877.31;1822143;78;21071;-63
2020/12/10 05:22:13;;;;;;;24.35;12.98;;;;;;;-1.96;73.36;99880.61;1777845;79;21470;-63
2020/12/10 05:24:40;;;;;;;18.70;10.15;;;;;;;-1.98;73.58;99886.11;1822095;78;21197;-63
2020/12/10 05:27:19;;;;;;;25.27;12.58;;;;;;;-1.97;73.64;99883.58;1808228;79;21068;-63
2020/12/10 05:29:48;;;;;;;23.98;12.68;;;;;;;-1.97;73.67;99875.94;1822124;78;20937;-63
2020/12/10 05:32:35;;;;;;;22.73;11.88;;;;;;;-1.99;73.82;99878.87;1809579;79;21060;-63
2020/12/10 05:35:25;;;;;;;24.40;11.60;;;;;;;-2.04;73.87;99881.80;1822304;78;21545;-63
2020/12/10 05:37:53;;;;;;;24.82;12.88;;;;;;;-2.08;74.05;99877.47;1809482;79;21205;-62
2020/12/10 05:40:21;;;;;;;29.90;14.03;;;;;;;-2.06;74.30;99874.53;1822013;78;21893;-63
2020/12/10 05:42:50;;;;;;;25.77;12.53;;;;;;;-2.00;74.25;99874.64;1822104;78;21052;-63
2020/12/10 05:45:22;;;;;;;22.77;12.07;;;;;;;-1.93;74.09;99866.65;1809488;79;21620;-63
2020/12/10 05:47:58;;;;;;;25.02;13.25;;;;;;;-1.90;74.04;99854.81;1821153;78;21127;-63
2020/12/10 05:50:28;;;;;;;21.80;10.98;;;;;;;-1.88;73.97;99848.05;1822064;78;21208;-63
2020/12/10 05:53:09;;;;;;;24.25;11.53;;;;;;;-1.87;73.92;99854.00;1822180;78;21123;-63
2020/12/10 05:55:41;;;;;;;26.68;13.08;;;;;;;-1.92;74.02;99855.62;1822139;78;21186;-62
2020/12/10 05:58:09;;;;;;;26.52;12.98;;;;;;;-1.96;74.16;99858.95;1822105;78;21567;-63
2020/12/10 06:00:37;;;;;;;47.40;20.15;;;;;;;-1.96;74.30;99855.98;1809377;79;21087;-64
2020/12/10 06:03:05;;;;;;;37.00;13.85;;;;;;;-1.93;74.44;99852.62;1822028;78;21519;-64
2020/12/10 06:05:33;;;;;;;26.85;13.18;;;;;;;-1.90;74.56;99853.95;1808432;79;21178;-65
2020/12/10 06:08:05;;;;;;;24.02;12.65;;;;;;;-1.86;74.53;99857.84;1759123;80;21106;-65
2020/12/10 06:10:42;;;;;;;29.25;13.10;;;;;;;-1.84;74.40;99871.89;1751655;80;21575;-63
2020/12/10 06:13:13;;;;;;;23.73;13.38;;;;;;;-1.86;74.46;99869.32;1795916;79;21134;-63
2020/12/10 06:15:45;;;;;;;21.85;11.85;;;;;;;-1.92;74.76;99879.41;1777343;80;21212;-64
2020/12/10 06:18:15;;;;;;;30.27;12.23;;;;;;;-1.92;74.92;99873.05;1788823;80;21190;-63
2020/12/10 06:20:45;;;;;;;27.58;13.13;;;;;;;-1.91;75.03;99865.84;1776257;80;21651;-64
2020/12/10 06:23:33;;;;;;;27.00;12.25;;;;;;;-1.91;75.13;99872.63;1789382;80;21499;-64
2020/12/10 06:26:25;;;;;;;26.82;13.72;;;;;;;-1.93;75.25;99873.88;1777330;80;21119;-63
2020/12/10 06:29:18;;;;;;;31.82;14.28;;;;;;;-1.98;75.41;99869.12;1801889;79;21392;-62
2020/12/10 06:32:13;;;;;;;32.25;13.93;;;;;;;-2.02;75.59;99871.20;1780683;80;21079;-64
2020/12/10 06:34:51;;;;;;;23.35;13.15;;;;;;;-2.00;75.72;99863.17;1789707;80;21143;-61
2020/12/10 06:37:29;;;;;;;25.37;14.00;;;;;;;-1.97;75.76;99852.13;1780283;79;21123;-65
2020/12/10 06:40:04;;;;;;;24.10;12.10;;;;;;;-1.97;75.81;99845.34;1812522;78;21597;-66
2020/12/10 06:42:46;;;;;;;30.72;15.23;;;;;;;-1.97;75.84;99852.13;1796428;78;21369;-67
2020/12/10 06:45:36;;;;;;;23.38;12.43;;;;;;;-2.02;76.08;99858.47;1789084;80;21196;-65
2020/12/10 06:48:05;;;;;;;28.92;14.80;;;;;;;-1.98;76.25;99867.84;1722476;82;21687;-63
2020/12/10 06:50:39;;;;;;;28.95;15.03;;;;;;;-1.97;76.40;99860.64;1772772;79;21139;-65
2020/12/10 06:53:15;;;;;;;28.27;14.85;;;;;;;-1.96;76.46;99856.40;1788018;80;21091;-65
2020/12/10 06:56:01;;;;;;;29.87;14.95;;;;;;;-1.94;76.62;99852.19;1787811;80;22106;-62
2020/12/10 06:58:42;;;;;;;36.55;14.58;;;;;;;-1.93;76.66;99849.66;1760530;80;21551;-62
2020/12/10 07:01:29;;;;;;;29.65;14.43;;;;;;;-1.89;76.77;99849.30;1787952;80;21182;-65
2020/12/10 07:07:22;;;;;;;24.95;14.07;;;;;;;-1.74;76.76;99853.33;1789589;80;21489;-62
2020/12/10 07:09:59;;;;;;;29.80;15.05;;;;;;;-1.72;76.88;99859.73;1789697;80;22854;-62
2020/12/10 07:12:34;;;;;;;26.77;15.30;;;;;;;-1.71;76.84;99851.23;1789567;80;21079;-63
2020/12/10 07:15:16;;;;;;;29.10;16.17;;;;;;;-1.73;76.98;99852.49;1762434;80;21595;-63
2020/12/10 07:17:47;;;;;;;31.87;15.35;;;;;;;-1.74;77.12;99855.87;1789828;80;21067;-62
2020/12/10 07:20:16;;;;;;;29.12;15.00;;;;;;;-1.68;77.37;99853.84;1789630;80;21126;-64
2020/12/10 07:22:44;;;;;;;31.40;13.80;;;;;;;-1.59;77.27;99846.30;1789878;80;22137;-62
2020/12/10 07:25:14;;;;;;;30.72;14.98;;;;;;;-1.56;77.21;99853.58;1789828;80;21547;-64
2020/12/10 07:27:44;;;;;;;43.83;19.23;;;;;;;-1.52;77.39;99850.65;1794879;79;21139;-61
2020/12/10 07:30:13;;;;;;;30.45;15.03;;;;;;;-1.48;77.61;99842.20;1798028;79;21134;-62
2020/12/10 07:32:41;;;;;;;26.12;14.60;;;;;;;-1.45;77.79;99844.38;1798079;79;21127;-62
2020/12/10 07:35:08;;;;;;;28.02;14.03;;;;;;;-1.42;78.05;99842.30;1798167;79;21355;-63
2020/12/10 07:37:37;;;;;;;32.53;14.83;;;;;;;-1.40;78.28;99838.06;1798124;79;21102;-62
2020/12/10 07:40:13;;;;;;;29.67;15.50;;;;;;;-1.40;78.42;99836.34;1797941;79;21070;-64
2020/12/10 07:42:44;;;;;;;26.95;15.32;;;;;;;-1.40;78.74;99834.24;1799930;78;21535;-70
2020/12/10 07:45:15;;;;;;;32.60;15.90;;;;;;;-1.36;78.80;99841.48;1809444;78;21166;-62
2020/12/10 07:47:56;;;;;;;27.10;14.43;;;;;;;-1.35;79.12;99845.75;1808479;78;21318;-66
2020/12/10 07:50:26;;;;;;;29.18;15.78;;;;;;;-1.29;79.11;99845.84;1808063;78;21267;-66
2020/12/10 07:52:55;;;;;;;30.27;16.48;;;;;;;-1.32;79.21;99840.27;1778563;78;21087;-67
2020/12/10 07:55:25;;;;;;;25.02;14.90;;;;;;;-1.29;79.46;99842.87;1802827;78;21059;-65
2020/12/10 07:58:14;;;;;;;29.82;15.30;;;;;;;-1.28;79.33;99837.34;1808526;78;21193;-65
2020/12/10 08:00:43;;;;;;;35.30;15.98;;;;;;;-1.31;79.48;99833.48;1812239;78;21159;-65
2020/12/10 08:03:22;;;;;;;35.78;16.95;;;;;;;-1.31;79.71;99832.20;1778000;78;21206;-66
2020/12/10 08:06:05;;;;;;;36.65;16.45;;;;;;;-1.35;79.60;99821.09;1809792;78;21119;-67
2020/12/10 08:08:38;;;;;;;29.52;14.70;;;;;;;-1.39;79.89;99813.81;1808668;78;21067;-65
2020/12/10 08:11:11;;;;;;;38.08;17.10;;;;;;;-1.39;79.99;99819.34;1807571;78;21515;-67
2020/12/10 08:13:54;;;;;;;33.28;15.38;;;;;;;-1.37;80.04;99829.56;1806251;78;21264;-65
2020/12/10 08:16:22;;;;;;;34.85;17.00;;;;;;;-1.38;80.04;99824.88;1807578;78;21157;-63
2020/12/10 08:18:50;;;;;;;29.15;15.53;;;;;;;-1.42;80.13;99821.88;1808782;78;21299;-65
2020/12/10 08:21:32;;;;;;;30.48;17.80;;;;;;;-1.43;80.23;99832.50;1801172;78;21633;-66
2020/12/10 08:24:00;;;;;;;32.80;14.68;;;;;;;-1.44;80.29;99825.69;1808393;78;21122;-65
2020/12/10 08:26:36;;;;;;;40.08;15.10;;;;;;;-1.40;80.51;99828.69;1783632;78;21632;-64
2020/12/10 08:29:16;;;;;;;32.28;17.60;;;;;;;-1.37;80.29;99819.36;1827606;78;21154;-67
2020/12/10 08:31:56;;;;;;;33.70;16.27;;;;;;;-1.39;80.48;99813.81;1827634;78;21556;-67
2020/12/10 08:34:25;;;;;;;32.35;16.48;;;;;;;-1.37;80.48;99802.78;1827149;78;21540;-68
2020/12/10 08:37:08;;;;;;;29.23;15.88;;;;;;;-1.37;80.63;99802.78;1827424;78;21178;-66
2020/12/10 08:39:40;;;;;;;35.48;15.30;;;;;;;-1.34;80.62;99807.50;1827038;78;22225;-69
2020/12/10 08:42:12;;;;;;;36.98;15.30;;;;;;;-1.29;80.68;99799.91;1813620;78;21237;-63
2020/12/10 08:44:54;;;;;;;29.92;14.78;;;;;;;-1.27;80.53;99798.23;1795588;78;21112;-66
2020/12/10 08:47:43;;;;;;;24.85;12.78;;;;;;;-1.33;80.53;99790.08;1795300;78;21547;-64
2020/12/10 08:50:23;;;;;;;29.32;14.87;;;;;;;-1.39;80.91;99785.75;1767619;79;21185;-64
2020/12/10 08:53:06;;;;;;;28.98;15.70;;;;;;;-1.45;80.92;99784.43;1795164;79;21356;-66
2020/12/10 08:55:44;;;;;;;30.80;16.48;;;;;;;-1.51;81.35;99790.73;1766280;79;21169;-64
2020/12/10 08:58:23;;;;;;;37.03;16.42;;;;;;;-1.41;81.59;99795.53;1797242;79;21613;-65
2020/12/10 09:00:55;;;;;;;36.53;18.17;;;;;;;-1.29;81.48;99789.28;1797866;78;21554;-65
2020/12/10 09:03:24;;;;;;;36.77;17.95;;;;;;;-1.19;81.24;99788.52;1797970;78;21129;-61
2020/12/10 09:05:53;;;;;;;40.48;21.27;;;;;;;-1.14;80.95;99786.03;1797846;78;22588;-61
2020/12/10 09:08:21;;;;;;;36.00;15.95;;;;;;;-1.15;80.75;99774.96;1797089;78;21240;-64
2020/12/10 09:10:49;;;;;;;36.88;18.52;;;;;;;-1.16;80.89;99788.98;1796952;78;21185;-65
2020/12/10 09:13:23;;;;;;;32.23;16.93;;;;;;;-1.20;80.81;99784.71;1803819;78;21119;-64
2020/12/10 09:15:49;;;;;;;37.85;18.95;;;;;;;-1.22;81.05;99779.59;1823304;78;21193;-63
2020/12/10 09:18:19;;;;;;;31.85;16.07;;;;;;;-1.19;81.03;99773.63;1812235;78;21343;-67
2020/12/10 09:20:46;;;;;;;35.30;17.25;;;;;;;-1.18;80.83;99781.73;1781115;78;21142;-64
2020/12/10 09:23:14;;;;;;;35.63;17.92;;;;;;;-1.22;80.78;99780.86;1807690;78;22403;-63
2020/12/10 09:25:42;;;;;;;34.50;16.65;;;;;;;-1.21;80.90;99785.55;1808631;78;21214;-65
2020/12/10 09:28:10;;;;;;;31.10;17.27;;;;;;;-1.17;80.63;99776.64;1801100;78;21654;-65
2020/12/10 09:30:38;;;;;;;32.60;16.45;;;;;;;-1.18;80.57;99780.03;1796349;79;21215;-64
2020/12/10 09:33:08;;;;;;;39.75;18.62;;;;;;;-1.19;80.59;99780.02;1807467;78;21083;-63
2020/12/10 09:35:36;;;;;;;38.17;18.90;;;;;;;-1.21;80.57;99770.23;1768247;79;21186;-63
2020/12/10 09:38:05;;;;;;;29.25;17.23;;;;;;;-1.25;80.58;99766.79;1796830;79;22198;-65
2020/12/10 09:40:32;;;;;;;33.23;17.80;;;;;;;-1.27;80.63;99768.47;1766094;79;21170;-64
2020/12/10 09:43:01;;;;;;;30.72;17.65;;;;;;;-1.35;80.63;99764.97;1797157;79;21525;-65
2020/12/10 09:45:29;;;;;;;30.55;17.07;;;;;;;-1.40;80.91;99760.25;1797877;79;21123;-65
2020/12/10 09:47:58;;;;;;;33.13;17.05;;;;;;;-1.42;81.11;99756.83;1798147;79;21508;-64
2020/12/10 09:50:30;;;;;;;28.62;16.85;;;;;;;-1.41;81.12;99761.95;1798069;79;21122;-63
2020/12/10 09:53:16;;;;;;;33.53;17.82;;;;;;;-1.38;81.21;99764.92;1798115;79;21136;-63
2020/12/10 09:58:22;;;;;;;27.75;15.63;;;;;;;-1.35;81.51;99756.45;1798053;79;21150;-63
2020/12/10 10:00:50;;;;;;;32.33;17.75;;;;;;;-1.37;81.50;99753.88;1827629;78;21582;-64
2020/12/10 10:03:18;;;;;;;36.35;17.25;;;;;;;-1.40;81.63;99745.77;1821829;78;21166;-63
2020/12/10 10:05:48;;;;;;;29.70;16.95;;;;;;;-1.39;81.92;99734.73;1814438;78;21051;-67
2020/12/10 10:08:16;;;;;;;26.60;15.63;;;;;;;-1.34;81.89;99737.34;1829922;78;21427;-65
2020/12/10 10:10:44;;;;;;;30.70;17.10;;;;;;;-1.33;81.67;99736.91;1825736;78;21130;-64
2020/12/10 10:13:12;;;;;;;27.60;15.95;;;;;;;-1.36;81.62;99731.36;1796876;79;21162;-63
2020/12/10 10:15:42;;;;;;;27.15;15.15;;;;;;;-1.35;81.85;99734.77;1797027;79;21197;-63
2020/12/10 10:18:10;;;;;;;25.02;15.30;;;;;;;-1.35;81.93;99716.91;1797691;79;21171;-65
2020/12/10 10:20:38;;;;;;;30.50;17.75;;;;;;;-1.38;81.99;99717.73;1798076;79;21375;-64
2020/12/10 10:23:06;;;;;;;34.48;18.90;;;;;;;-1.35;82.23;99722.01;1798020;79;21511;-63
2020/12/10 10:25:34;;;;;;;27.67;16.42;;;;;;;-1.27;82.41;99717.85;1797736;79;21150;-61
2020/12/10 10:28:08;;;;;;;26.33;16.37;;;;;;;-1.20;82.41;99711.52;1797526;79;21059;-62
2020/12/10 10:30:41;;;;;;;24.95;15.45;;;;;;;-1.11;82.31;99706.94;1798026;79;21145;-62
2020/12/10 10:33:09;;;;;;;27.25;15.30;;;;;;;-1.07;82.29;99717.62;1797170;79;21268;-68
2020/12/10 10:35:37;;;;;;;24.52;13.93;;;;;;;-1.07;81.87;99712.09;1793873;79;21222;-62
2020/12/10 10:38:05;;;;;;;27.60;15.15;;;;;;;-1.06;81.77;99709.98;1795444;79;21161;-62
2020/12/10 10:40:37;;;;;;;25.15;15.53;;;;;;;-1.05;81.95;99709.14;1797774;79;21075;-62
2020/12/10 10:43:04;;;;;;;28.45;15.40;;;;;;;-1.05;81.93;99711.69;1770276;79;21116;-62
2020/12/10 10:45:32;;;;;;;26.07;15.85;;;;;;;-1.01;81.96;99712.58;1797993;79;21719;-62
2020/12/10 10:48:00;;;;;;;31.02;17.50;;;;;;;-0.95;82.06;99700.27;1797046;79;21171;-63
2020/12/10 10:50:27;;;;;;;23.60;14.50;;;;;;;-0.93;81.97;99701.13;1796741;79;21181;-62
2020/12/10 10:52:55;;;;;;;25.95;14.45;;;;;;;-0.90;81.88;99699.47;1798033;79;21142;-62
2020/12/10 10:55:23;;;;;;;20.82;14.03;;;;;;;-0.89;81.63;99699.05;1798141;79;21532;-61
2020/12/10 10:57:51;;;;;;;24.30;14.05;;;;;;;-0.91;81.80;99692.65;1798093;79;21885;-62
2020/12/10 11:00:19;;;;;;;22.15;13.75;;;;;;;-0.92;81.78;99687.53;1798059;79;21618;-60
2020/12/10 11:02:47;;;;;;;21.70;13.78;;;;;;;-0.98;81.64;99682.36;1797789;79;21051;-64
2020/12/10 11:05:15;;;;;;;19.90;13.98;;;;;;;-0.99;81.72;99676.40;1798137;79;21082;-63
2020/12/10 11:07:43;;;;;;;25.08;14.78;;;;;;;-0.97;81.84;99679.83;1798023;79;21176;-66
2020/12/10 11:10:12;;;;;;;24.75;14.58;;;;;;;-0.93;82.22;99675.61;1798103;79;21346;-63
2020/12/10 11:12:41;;;;;;;21.95;13.60;;;;;;;-0.94;82.30;99678.58;1798030;79;21212;-64
2020/12/10 11:15:10;;;;;;;24.02;13.10;;;;;;;-0.95;82.30;99678.14;1798208;79;21125;-61
2020/12/10 11:17:38;;;;;;;19.95;12.07;;;;;;;-0.93;82.56;99680.29;1798137;79;21066;-64
2020/12/10 11:20:06;;;;;;;20.43;13.10;;;;;;;-0.88;82.43;99681.19;1794258;79;21617;-62
2020/12/10 11:22:38;;;;;;;19.70;12.13;;;;;;;-0.89;82.43;99672.23;1794544;79;23532;-62
2020/12/10 11:25:06;;;;;;;19.27;12.45;;;;;;;-0.88;82.55;99672.25;1798179;79;21068;-65
2020/12/10 11:27:33;;;;;;;18.87;12.23;;;;;;;-0.83;82.66;99671.02;1797197;79;21223;-65
2020/12/10 11:30:01;;;;;;;20.82;13.38;;;;;;;-0.82;82.56;99672.73;1796636;79;21151;-65
2020/12/10 11:32:29;;;;;;;19.77;11.75;;;;;;;-0.85;82.59;99664.62;1809347;78;21186;-65
2020/12/10 11:34:57;;;;;;;19.20;11.63;;;;;;;-0.84;82.88;99663.77;1788562;78;21356;-67
2020/12/10 11:37:25;;;;;;;20.37;13.72;;;;;;;-0.82;83.00;99659.96;1809406;78;21177;-67
2020/12/10 11:39:54;;;;;;;18.32;11.78;;;;;;;-0.82;83.17;99659.54;1817146;78;21135;-66